.
WxDataArchive / Data Records for 2014-08-24
2014-08-23 August 2014 2014-08-25

Data Records for Sunday, 24 August 2014

Time	Temp	Chill	HIndex	Humid	Dewpt	 Wind 	HiWind	WindDir	Rain 	Barom
-----	----	-----	------	-----	-----	------	------	-------	-----	-----
00:00	70.3	70.3	70.3	87	66.2	1	3	68	0.00	29.990 
00:05	70.1	70.1	70.1	87	66.0	1	3	90	0.00	29.990 
00:10	69.9	69.9	69.9	88	66.2	1	5	90	0.00	29.990 
00:15	69.9	69.9	69.9	88	66.2	2	5	90	0.00	29.992 
00:20	69.8	69.8	69.8	88	66.1	1	4	90	0.00	29.992 
00:25	69.8	69.8	69.8	88	66.1	1	4	90	0.00	29.992 
00:30	69.6	69.6	69.6	88	65.9	2	5	45	0.00	29.993 
00:35	69.6	69.6	69.6	88	65.9	2	7	90	0.00	29.993 
00:40	69.4	69.4	69.4	88	65.7	2	4	90	0.00	29.993 
00:45	69.4	69.4	69.4	88	65.7	1	4	90	0.00	29.996 
00:50	69.3	69.3	69.3	88	65.6	1	7	90	0.00	29.996 
00:55	69.1	69.1	69.1	88	65.4	2	4	90	0.00	29.996 
01:00	69.1	69.1	69.1	88	65.4	2	5	90	0.00	29.998 
01:05	68.9	68.9	68.9	89	65.5	2	6	90	0.00	29.998 
01:10	68.8	68.8	68.8	89	65.4	1	4	90	0.00	29.998 
01:15	68.8	68.8	68.8	89	65.4	1	4	68	0.00	29.992 
01:20	68.6	68.6	68.6	89	65.2	1	3	90	0.00	29.992 
01:25	68.4	68.4	68.4	89	65.0	1	4	90	0.00	29.992 
01:30	68.3	68.3	68.3	90	65.2	1	4	90	0.00	29.994 
01:35	68.3	68.3	68.3	90	65.2	1	3	45	0.00	29.994 
01:40	68.1	68.1	68.1	90	65.0	1	4	112	0.00	29.994 
01:45	68.1	68.1	68.1	90	65.0	1	3	112	0.00	29.992 
01:50	67.9	67.9	67.9	90	64.9	1	5	90	0.00	29.992 
01:55	67.9	67.9	67.9	90	64.9	1	3	90	0.00	29.992 
02:00	67.8	67.8	67.8	90	64.8	2	6	90	0.00	29.985 
02:05	67.8	67.8	67.8	90	64.8	1	5	68	0.00	29.985 
02:10	67.6	67.6	67.6	91	64.9	1	4	90	0.00	29.985 
02:15	67.6	67.6	67.6	91	64.9	1	5	90	0.00	29.991 
02:20	67.6	67.6	67.6	91	64.9	1	3	90	0.00	29.991 
02:25	67.4	67.4	67.4	91	64.7	1	4	90	0.00	29.991 
02:30	67.4	67.4	67.4	91	64.7	1	4	90	0.00	29.990 
02:35	67.4	67.4	67.4	91	64.7	0	3	90	0.00	29.990 
02:40	67.3	67.3	67.3	91	64.6	0	2	90	0.00	29.990 
02:45	67.3	67.3	67.3	91	64.6	0	1	90	0.00	29.993 
02:50	67.3	67.3	67.3	91	64.6	0	4	135	0.00	29.993 
02:55	67.1	67.1	67.1	91	64.4	1	3	112	0.00	29.993 
03:00	67.1	67.1	67.1	91	64.4	0	2	112	0.00	29.991 
03:05	67.1	67.1	67.1	92	64.7	0	2	112	0.00	29.991 
03:10	66.9	66.9	66.9	92	64.5	0	1	112	0.00	29.991 
03:15	66.9	66.9	66.9	92	64.5	0	2	112	0.00	29.990 
03:20	66.9	66.9	66.9	92	64.5	0	3	112	0.00	29.990 
03:25	66.9	66.9	66.9	92	64.5	0	4	112	0.00	29.990 
03:30	66.8	66.8	66.8	92	64.4	1	6	112	0.00	29.982 
03:35	66.8	66.8	66.8	92	64.4	0	2	90	0.00	29.982 
03:40	66.8	66.8	66.8	92	64.4	0	2	90	0.00	29.982 
03:45	66.6	66.6	66.6	92	64.2	0	3	90	0.00	29.989 
03:50	66.6	66.6	66.6	92	64.2	0	2	90	0.00	29.989 
03:55	66.6	66.6	66.6	92	64.2	1	3	90	0.00	29.989 
04:00	66.4	66.4	66.4	92	64.0	1	4	90	0.00	29.977 
04:05	66.4	66.4	66.4	92	64.0	1	4	112	0.00	29.977 
04:10	66.4	66.4	66.4	93	64.3	1	3	112	0.00	29.977 
04:15	66.3	66.3	66.3	93	64.2	0	2	112	0.00	29.980 
04:20	66.3	66.3	66.3	93	64.2	0	3	112	0.00	29.980 
04:25	66.3	66.3	66.3	93	64.2	1	3	112	0.00	29.980 
04:30	66.3	66.3	66.3	93	64.2	0	3	112	0.00	29.980 
04:35	66.1	66.1	66.1	93	64.0	0	1	112	0.00	29.980 
04:40	66.1	66.1	66.1	93	64.0	0	3	112	0.00	29.980 
04:45	66.1	66.1	66.1	93	64.0	0	2	112	0.00	29.980 
04:50	66.1	66.1	66.1	93	64.0	0	2	112	0.00	29.980 
04:55	66.1	66.1	66.1	93	64.0	0	2	112	0.00	29.980 
05:00	66.0	66.0	66.0	93	63.9	0	2	112	0.00	29.979 
05:05	66.0	66.0	66.0	94	64.2	0	1	112	0.00	29.979 
05:10	66.0	66.0	66.0	94	64.2	0	1	112	0.00	29.979 
05:15	66.0	66.0	66.0	94	64.2	0	1	112	0.00	29.982 
05:20	66.0	66.0	66.0	94	64.2	0	1	112	0.00	29.982 
05:25	66.0	66.0	66.0	94	64.2	0	2	112	0.00	29.982 
05:30	66.0	66.0	66.0	94	64.2	0	1	112	0.00	29.985 
05:35	66.0	66.0	66.0	94	64.2	0	4	135	0.00	29.985 
05:40	65.8	65.8	65.8	94	64.0	0	1	135	0.00	29.985 
05:45	65.8	65.8	65.8	94	64.0	0	1	135	0.00	29.992 
05:50	65.8	65.8	65.8	94	64.0	0	0	---	0.00	29.992 
05:55	65.8	65.8	65.8	94	64.0	0	1	135	0.00	29.992 
06:00	65.8	65.8	65.8	94	64.0	0	3	135	0.00	29.995 
06:05	66.0	66.0	66.0	94	64.2	0	3	135	0.00	29.995 
06:10	66.0	66.0	66.0	94	64.2	0	2	135	0.00	29.995 
06:15	66.0	66.0	66.0	94	64.2	0	3	135	0.00	29.997 
06:20	66.0	66.0	66.0	94	64.2	1	4	112	0.00	29.997 
06:25	66.0	66.0	66.0	94	64.2	1	3	112	0.00	29.997 
06:30	65.8	65.8	65.8	94	64.0	0	5	112	0.00	29.998 
06:35	65.8	65.8	65.8	94	64.0	0	2	112	0.00	29.998 
06:40	65.8	65.8	65.8	94	64.0	1	4	112	0.00	29.998 
06:45	65.8	65.8	65.8	94	64.0	1	2	112	0.00	30.004 
06:50	65.8	65.8	65.8	94	64.0	0	2	112	0.00	30.004 
06:55	65.8	65.8	65.8	94	64.0	1	3	112	0.00	30.004 
07:00	65.6	65.6	65.6	94	63.8	1	6	90	0.00	30.005 
07:05	65.6	65.6	65.6	95	64.1	1	2	90	0.00	30.005 
07:10	65.8	65.8	65.8	95	64.3	0	3	90	0.00	30.005 
07:15	65.8	65.8	65.8	94	64.0	1	3	90	0.00	30.013 
07:20	65.6	65.6	65.6	95	64.1	0	2	90	0.00	30.013 
07:25	65.6	65.6	65.6	94	63.8	1	4	90	0.00	30.013 
07:30	65.6	65.6	65.6	95	64.1	1	5	90	0.00	30.016 
07:35	65.8	65.8	65.8	95	64.3	1	4	90	0.00	30.016 
07:40	65.8	65.8	65.8	94	64.0	1	3	90	0.00	30.016 
07:45	65.8	65.8	65.8	95	64.3	0	3	90	0.00	30.022 
07:50	65.8	65.8	65.8	95	64.3	1	4	90	0.00	30.022 
07:55	66.0	66.0	66.0	95	64.5	1	5	90	0.00	30.022 
08:00	66.0	66.0	66.0	95	64.5	1	5	90	0.00	30.022 
08:05	66.1	66.1	66.1	94	64.3	1	3	90	0.00	30.022 
08:10	66.3	66.3	66.3	95	64.8	0	2	90	0.00	30.022 
08:15	66.4	66.4	66.4	94	64.6	1	3	90	0.00	30.029 
08:20	66.4	66.4	66.4	94	64.6	0	3	90	0.00	30.029 
08:25	66.4	66.4	66.4	94	64.6	1	4	112	0.00	30.029 
08:30	66.6	66.6	66.6	94	64.8	1	3	112	0.00	30.030 
08:35	66.6	66.6	66.6	94	64.8	1	5	90	0.00	30.030 
08:40	66.8	66.8	66.8	94	65.0	0	2	90	0.00	30.030 
08:45	66.8	66.8	66.8	94	65.0	1	3	90	0.00	30.030 
08:50	66.9	66.9	66.9	94	65.1	0	3	90	0.00	30.030 
08:55	66.9	66.9	66.9	93	64.8	1	3	90	0.00	30.030 
09:00	66.9	66.9	66.9	93	64.8	1	3	68	0.00	30.029 
09:05	67.3	67.3	67.3	93	65.2	0	2	68	0.00	30.029 
09:10	67.6	67.6	67.6	93	65.5	1	3	68	0.00	30.029 
09:15	67.9	67.9	67.9	93	65.8	1	3	90	0.00	30.031 
09:20	67.9	67.9	67.9	92	65.5	1	4	90	0.00	30.031 
09:25	67.9	67.9	67.9	92	65.5	1	3	90	0.00	30.031 
09:30	68.1	68.1	68.1	92	65.7	1	4	68	0.00	30.030 
09:35	68.3	68.3	68.3	92	65.9	1	3	90	0.00	30.030 
09:40	68.4	68.4	68.4	92	66.0	0	1	68	0.00	30.030 
09:45	68.6	68.6	68.6	91	65.9	2	5	90	0.00	30.029 
09:50	68.8	68.8	68.8	91	66.1	1	5	90	0.00	30.029 
09:55	68.9	68.9	68.9	90	65.8	1	3	90	0.00	30.029 
10:00	69.4	69.4	69.4	90	66.3	1	3	90	0.00	30.027 
10:05	69.9	69.9	69.9	89	66.5	1	4	90	0.00	30.027 
10:10	70.1	70.1	70.1	88	66.4	2	5	90	0.00	30.027 
10:15	70.8	70.8	70.8	87	66.7	1	4	90	0.00	30.030 
10:20	70.9	70.9	70.9	86	66.5	1	4	90	0.00	30.030 
10:25	71.1	71.1	71.1	86	66.7	1	3	90	0.00	30.030 
10:30	71.3	71.3	71.3	85	66.5	2	5	90	0.00	30.029 
10:35	71.5	71.5	71.5	86	67.1	1	5	90	0.00	30.029 
10:40	71.6	71.6	71.6	85	66.8	2	5	90	0.00	30.029 
10:45	72.0	72.0	72.0	85	67.2	2	5	90	0.00	30.027 
10:50	72.1	72.1	72.1	84	67.0	2	5	90	0.00	30.027 
10:55	72.3	72.3	72.3	84	67.2	2	4	90	0.00	30.027 
11:00	72.3	72.3	72.3	84	67.2	1	4	90	0.00	30.029 
11:05	72.3	72.3	72.3	84	67.2	1	5	68	0.00	30.029 
11:10	72.3	72.3	72.3	85	67.5	1	2	68	0.00	30.029 
11:15	72.5	72.5	72.5	85	67.7	1	4	68	0.00	30.030 
11:20	73.0	73.0	73.0	84	67.9	1	3	68	0.00	30.030 
11:25	73.3	73.3	73.3	84	68.2	1	5	90	0.00	30.030 
11:30	73.5	73.5	73.5	84	68.4	1	4	68	0.00	30.026 
11:35	73.9	73.9	73.9	83	68.4	1	4	68	0.00	30.026 
11:40	74.4	74.4	74.4	83	68.9	1	3	68	0.00	30.026 
11:45	74.9	74.9	74.9	82	69.0	1	3	68	0.00	30.024 
11:50	75.1	75.1	75.6	81	68.9	1	3	90	0.00	30.024 
11:55	75.3	75.3	75.9	81	69.1	1	4	90	0.00	30.024 
12:00	75.1	75.1	75.6	81	68.9	1	3	90	0.00	30.027 
12:05	75.1	75.1	75.6	81	68.9	1	3	90	0.00	30.027 
12:10	75.3	75.3	75.9	81	69.1	1	4	90	0.00	30.027 
12:15	76.0	76.0	76.9	81	69.7	1	3	90	0.00	30.027 
12:20	76.1	76.1	77.2	79	69.1	1	5	90	0.00	30.027 
12:25	76.3	76.3	77.5	79	69.3	0	2	90	0.00	30.027 
12:30	76.7	76.7	78.1	79	69.7	0	2	90	0.00	30.026 
12:35	76.7	76.7	78.1	79	69.7	1	3	90	0.00	30.026 
12:40	76.7	76.7	78.1	79	69.7	0	2	90	0.00	30.026 
12:45	76.7	76.7	78.1	79	69.7	0	2	90	0.00	30.026 
12:50	76.3	76.3	77.6	78	68.9	1	5	90	0.00	30.026 
12:55	76.3	76.3	77.5	79	69.3	1	3	112	0.00	30.026 
13:00	76.3	76.3	77.5	79	69.3	0	1	112	0.00	30.027 
13:05	76.5	76.5	77.8	79	69.5	0	3	112	0.00	30.027 
13:10	76.5	76.5	77.8	79	69.5	1	5	112	0.00	30.027 
13:15	76.7	76.7	78.2	78	69.3	1	4	112	0.00	30.025 
13:20	76.7	76.7	78.1	79	69.7	0	2	90	0.00	30.025 
13:25	76.8	76.8	78.3	78	69.4	1	4	90	0.00	30.025 
13:30	77.2	77.2	78.9	79	70.2	0	3	90	0.00	30.022 
13:35	77.4	77.4	79.3	78	70.0	2	5	90	0.00	30.022 
13:40	77.6	77.6	79.6	78	70.2	1	6	90	0.00	30.022 
13:45	77.9	77.9	80.1	78	70.5	1	3	90	0.00	30.012 
13:50	78.5	78.5	81.1	77	70.7	1	3	90	0.00	30.012 
13:55	78.8	78.8	81.5	75	70.2	1	5	90	0.00	30.012 
14:00	79.4	79.4	82.6	76	71.2	1	4	112	0.00	30.013 
14:05	79.9	79.9	83.5	76	71.6	1	3	112	0.00	30.013 
14:10	80.5	80.5	84.1	72	70.6	1	4	112	0.00	30.013 
14:15	80.9	80.9	85.0	73	71.4	1	4	90	0.00	30.008 
14:20	80.9	80.9	84.8	72	71.0	1	4	90	0.00	30.008 
14:25	81.1	81.1	85.2	72	71.2	1	4	90	0.00	30.008 
14:30	81.2	81.2	85.3	72	71.3	1	5	90	0.00	30.008 
14:35	81.2	81.2	85.3	72	71.3	1	4	112	0.00	30.008 
14:40	81.2	81.2	85.3	72	71.3	1	4	90	0.00	30.008 
14:45	81.6	81.6	85.9	71	71.3	0	2	135	0.00	30.000 
14:50	81.8	81.8	86.5	72	71.9	1	4	90	0.00	30.000 
14:55	82.0	82.0	86.9	72	72.1	1	4	90	0.00	30.000 
15:00	82.4	82.4	87.4	71	72.0	1	3	68	0.00	29.992 
15:05	82.4	82.4	87.2	70	71.6	1	4	90	0.00	29.992 
15:10	82.4	82.4	87.4	71	72.0	1	4	90	0.00	29.992 
15:15	82.8	82.8	88.0	70	72.0	0	2	90	0.00	29.988 
15:20	83.2	83.2	88.2	68	71.5	0	4	135	0.00	29.988 
15:25	83.0	83.0	88.1	69	71.8	1	3	90	0.00	29.988 
15:30	82.4	82.4	87.4	71	72.0	1	4	90	0.00	29.986 
15:35	82.2	82.2	87.0	71	71.8	1	3	90	0.00	29.986 
15:40	82.4	82.4	87.7	72	72.4	0	1	90	0.00	29.986 
15:45	83.0	83.0	89.2	73	73.4	0	2	90	0.00	29.982 
15:50	83.2	83.2	88.5	69	71.9	1	2	90	0.00	29.982 
15:55	83.4	83.4	88.9	69	72.1	1	4	112	0.00	29.982 
16:00	82.8	82.8	88.2	71	72.4	1	4	90	0.00	29.981 
16:05	82.8	82.8	88.5	72	72.8	0	2	90	0.00	29.981 
16:10	82.6	82.6	87.8	71	72.2	1	3	90	0.00	29.981 
16:15	82.8	82.8	88.0	70	72.0	1	3	90	0.00	29.981 
16:20	83.2	83.2	89.1	71	72.8	0	2	90	0.00	29.981 
16:25	83.2	83.2	88.5	69	71.9	1	4	90	0.00	29.981 
16:30	83.0	83.0	88.1	69	71.8	1	3	90	0.00	29.978 
16:35	82.8	82.8	88.2	71	72.4	1	4	90	0.00	29.978 
16:40	82.8	82.8	88.2	71	72.4	0	3	90	0.00	29.978 
16:45	83.0	83.0	88.4	70	72.2	1	3	90	0.00	29.978 
16:50	83.6	83.6	89.6	70	72.8	0	1	90	0.00	29.978 
16:55	83.8	83.8	89.1	67	71.6	0	1	90	0.00	29.978 
17:00	83.8	83.8	89.4	68	72.1	0	1	90	0.00	29.974 
17:05	83.8	83.8	89.1	67	71.6	0	3	112	0.00	29.974 
17:10	83.8	83.8	89.4	68	72.1	0	1	135	0.00	29.974 
17:15	83.6	83.6	89.0	68	71.9	1	3	135	0.00	29.971 
17:20	83.2	83.2	88.5	69	71.9	1	3	135	0.00	29.971 
17:25	83.2	83.2	88.2	68	71.5	0	3	135	0.00	29.971 
17:30	83.0	83.0	88.1	69	71.8	1	4	90	0.00	29.972 
17:35	82.6	82.6	87.8	71	72.2	1	3	90	0.00	29.972 
17:40	82.4	82.4	87.0	69	71.2	0	1	90	0.00	29.972 
17:45	82.4	82.4	87.0	69	71.2	0	2	90	0.00	29.974 
17:50	82.4	82.4	87.0	69	71.2	0	1	90	0.00	29.974 
17:55	82.6	82.6	87.6	70	71.8	0	1	90	0.00	29.974 
18:00	82.6	82.6	87.6	70	71.8	0	1	90	0.00	29.974 
18:05	82.4	82.4	87.0	69	71.2	0	2	90	0.00	29.974 
18:10	82.4	82.4	87.0	69	71.2	0	1	90	0.00	29.974 
18:15	82.2	82.2	86.8	70	71.4	1	3	90	0.00	29.974 
18:20	82.0	82.0	86.4	70	71.2	1	4	90	0.00	29.974 
18:25	81.8	81.8	86.3	71	71.5	1	3	90	0.00	29.974 
18:30	81.8	81.8	86.1	70	71.0	1	5	135	0.00	29.971 
18:35	81.4	81.4	85.3	70	70.7	1	4	90	0.00	29.971 
18:40	81.2	81.2	85.2	71	70.9	0	2	90	0.00	29.971 
18:45	81.2	81.2	85.3	72	71.3	0	1	90	0.00	29.975 
18:50	81.1	81.1	85.3	73	71.6	0	1	90	0.00	29.975 
18:55	81.1	81.1	85.3	73	71.6	0	2	90	0.00	29.975 
19:00	80.9	80.9	85.0	73	71.4	1	4	90	0.00	29.975 
19:05	80.7	80.7	84.6	73	71.2	0	1	90	0.00	29.975 
19:10	80.5	80.5	84.4	74	71.4	0	2	90	0.00	29.975 
19:15	80.5	80.5	84.4	74	71.4	0	1	90	0.00	29.978 
19:20	80.3	80.3	84.0	74	71.2	0	1	90	0.00	29.978 
19:25	80.1	80.1	83.5	73	70.6	0	0	---	0.00	29.978 
19:30	80.1	80.1	83.4	72	70.2	0	1	90	0.00	29.975 
19:35	79.9	79.9	82.9	71	69.6	0	3	45	0.00	29.975 
19:40	79.9	79.9	83.0	72	70.0	1	4	45	0.00	29.975 
19:45	80.1	80.1	83.4	72	70.2	0	1	45	0.00	29.972 
19:50	79.9	79.9	83.1	73	70.4	0	1	45	0.00	29.972 
19:55	79.9	79.9	83.1	73	70.4	0	3	45	0.00	29.972 
20:00	79.8	79.8	83.1	74	70.8	0	2	45	0.00	29.973 
20:05	79.8	79.8	83.1	74	70.8	0	1	45	0.00	29.973 
20:10	79.6	79.6	82.8	75	71.0	0	1	45	0.00	29.973 
20:15	79.6	79.6	82.8	75	71.0	0	2	45	0.00	29.978 
20:20	79.2	79.2	82.2	76	71.0	1	3	68	0.00	29.978 
20:25	79.0	79.0	81.9	76	70.8	0	3	68	0.00	29.978 
20:30	78.8	78.8	81.6	77	71.0	1	3	90	0.00	29.978 
20:35	78.5	78.5	81.1	77	70.7	0	2	90	0.00	29.978 
20:40	78.3	78.3	80.7	77	70.5	0	3	90	0.00	29.978 
20:45	78.1	78.1	80.4	78	70.7	0	1	90	0.00	29.982 
20:50	77.9	77.9	80.1	78	70.5	1	3	90	0.00	29.982 
20:55	77.6	77.6	79.6	79	70.6	0	2	90	0.00	29.982 
21:00	77.4	77.4	79.3	79	70.4	0	2	90	0.00	29.987 
21:05	77.4	77.4	79.3	79	70.4	0	2	90	0.00	29.987 
21:10	77.4	77.4	79.3	78	70.0	1	3	68	0.00	29.987 
21:15	77.6	77.6	79.6	78	70.2	0	2	68	0.00	29.995 
21:20	77.6	77.6	79.6	78	70.2	1	3	90	0.00	29.995 
21:25	77.7	77.7	79.7	78	70.3	0	2	90	0.00	29.995 
21:30	77.6	77.6	79.6	78	70.2	1	5	90	0.00	29.996 
21:35	77.7	77.7	79.7	78	70.3	1	3	68	0.00	29.996 
21:40	77.6	77.6	79.6	78	70.2	0	1	68	0.00	29.996 
21:45	77.6	77.6	79.6	79	70.6	0	1	68	0.00	29.999 
21:50	77.4	77.4	79.3	79	70.4	0	3	68	0.00	29.999 
21:55	77.4	77.4	79.3	79	70.4	0	4	68	0.00	29.999 
22:00	77.2	77.2	78.9	80	70.5	0	3	90	0.00	30.001 
22:05	77.0	77.0	78.6	80	70.3	0	2	90	0.00	30.001 
22:10	76.8	76.8	78.2	81	70.5	0	1	90	0.00	30.001 
22:15	76.5	76.5	77.7	82	70.6	0	1	90	0.00	30.003 
22:20	76.3	76.3	77.2	83	70.7	0	2	90	0.00	30.003 
22:25	76.1	76.1	76.9	83	70.5	0	1	90	0.00	30.003 
22:30	75.8	75.8	76.3	84	70.6	0	1	90	0.00	30.007 
22:35	75.6	75.6	76.0	84	70.4	0	2	90	0.00	30.007 
22:40	75.4	75.4	75.7	84	70.2	0	2	90	0.00	30.007 
22:45	75.1	75.1	75.3	83	69.6	1	3	90	0.00	30.011 
22:50	74.9	74.9	74.9	83	69.4	1	4	90	0.00	30.011 
22:55	74.7	74.7	74.7	83	69.2	1	3	90	0.00	30.011 
23:00	74.6	74.6	74.6	83	69.1	1	3	68	0.00	30.013 
23:05	74.4	74.4	74.4	83	68.9	1	4	90	0.00	30.013 
23:10	74.2	74.2	74.2	84	69.0	1	4	90	0.00	30.013 
23:15	74.0	74.0	74.0	84	68.8	1	3	90	0.00	30.012 
23:20	73.9	73.9	73.9	85	69.1	1	3	90	0.00	30.012 
23:25	73.7	73.7	73.7	85	68.9	1	3	90	0.00	30.012 
23:30	73.5	73.5	73.5	85	68.7	1	3	90	0.00	30.017 
23:35	73.5	73.5	73.5	86	69.0	1	4	90	0.00	30.017 
23:40	73.3	73.3	73.3	86	68.8	1	3	90	0.00	30.017 
23:45	73.2	73.2	73.2	87	69.1	1	4	90	0.00	30.021 
23:50	73.0	73.0	73.0	87	68.9	1	3	68	0.00	30.021 
23:55	73.0	73.0	73.0	87	68.9	0	2	68	0.00	30.021 

CoCoRaHS
IN-AL-39
A2 Web Hosting
Creative Commons License
GoDaddy
search engine by freefind advanced

loaded 2018-11-16 23:50:44 • last modified 2010-11-18 10:43:29
Privacy PolicyDisclaimer
• wx.awcolley.com is powered by PmWiki v.2002016 •
• all content (unless otherwise noted) © 2018 A W Colley